Marshallton, Pennsylvania
Current Conditions -  °F | °C
As of 2:53 AM on Friday 28 Nov 2014 (Local Time) from KSEG Reporting Station
Broken Clouds Broken Clouds  
Wind Chill: -1°   Ceiling: 4300
Heat Index: -1°   Visibility: 10mi
Dew Point: -6°   Wind: 3mph
Humidity: 72%   Direction: 230°SW
Pressure: 30.13"   Gusts: NA
Location:  40.7842°N, 76.5797°W
Report Text: KSEG 280753Z AUTO 23003KT 10SM BKN043 M01/M06 A3013 RMK AO2 SLP208 T10111056
Loading
Personal Weather Stations






























Interactive Weather Map New forecast layout! Learn more

10-Day Weather Forecast

Advertisements
Track Severe Weather on mobile